Skip Navigation Links Skip Navigation Links

Current Weather

Cambridge Bay Apt, Cambridge Bay, N.T.

For information only: do not use for flight planning or navigation.
Latest weather
Observation time Monday, September 25, 2017 4:00 PM MDT
Local time Monday, September 25, 2017 4:29 PM MDT
Flight conditions Visual Meteorological Conditions
Winds
Wind direction Southeast (140°)
Wind speed 20 mph
Visibility 15 mi.
Sky condition
Ceiling 7,000 ft. broken clouds
Cloud layer few clouds 500 ft.
Cloud layer scattered clouds 3,500 ft.
Cloud layer broken clouds 7,000 ft.
Temperature 39°F
Dewpoint 36°F
Altimeter 29.79 in.Hg
Derived measurements
Relative humidity 87%
Wind chill 30°F
Density altitude -987 ft.
Sea-level pressure 29.80 in.Hg
METAR CYCB 252200Z 14017KT 15SM FEW005 SCT035 BKN070 04/02 A2979 RMK SF1SC2AC3 SLP093

Settings

Location code

InnerDrive.Weather 4.0.6144.1 Release CLR 4.0.30319.36366
Copyright ©2015 Inner Drive Technology. All rights reserved. Portions Copyright ©1986-2015 David Braverman.

Find weather

Site navigation


Skip Navigation Links

Place info

Page info

PayPal - The safer, easier way to pay online!

Return home.

Copyright ©2017 Inner Drive Technology. Purveyors of fine, hand-crafted computer software. Page printed 2017-09-25T22:29:48 UTC.